KVNY/VNY METAR and TAF weather

Enter ICAO airport designator
Station Type Date Time Source
KVNY METAR 2020/11/28 19:51 UTC NOAA

KVNY 281951Z VRB03KT 10SM CLR 21/M12 A3016 RMK AO2 SLP207 T02111117


Station Type Date Time Source
KVNY Decoded METAR 2020/11/28 19:51 UTC NOAA

VAN NUYS AIRPORT, CA, United States (KVNY) 34-13N 118-29W 245M
Nov 28, 2020 - 02:51 PM EST / 2020.11.28 1951 UTC
Wind: Variable at 3 MPH (3 KT):0
Visibility: 10 mile(s):0
Sky conditions: clear
Temperature: 70.0 F (21.1 C)
Dew Point: 10.9 F (-11.7 C)
Relative Humidity: 9%
Pressure (altimeter): 30.16 in. Hg (1021 hPa)
ob: KVNY 281951Z VRB03KT 10SM CLR 21/M12 A3016 RMK AO2 SLP207 T02111117
cycle: 20

Station Type Date Time Source
KVNY TAF 2020/11/28 18:39 UTC NOAA

TAF KVNY 281736Z 2818/2918 VRB03KT P6SM SKC
FM282100 14005KT P6SM SKC
FM290400 VRB03KT P6SM SKC

Example: see airport list